sensor_id;sensor_type;location;lat;lon;timestamp;P1;durP1;ratioP1;P2;durP2;ratioP2
7410;SDS011;3747;48.628;9.058;2024-02-26T00:01:49;1.27;;;1.17;;
7410;SDS011;3747;48.628;9.058;2024-02-26T00:04:16;1.87;;;1.43;;
7410;SDS011;3747;48.628;9.058;2024-02-26T00:06:43;1.90;;;1.30;;
7410;SDS011;3747;48.628;9.058;2024-02-26T00:09:11;2.33;;;1.70;;
7410;SDS011;3747;48.628;9.058;2024-02-26T00:11:38;1.60;;;1.43;;
7410;SDS011;3747;48.628;9.058;2024-02-26T00:14:05;1.60;;;1.23;;
7410;SDS011;3747;48.628;9.058;2024-02-26T00:16:31;2.17;;;1.53;;
7410;SDS011;3747;48.628;9.058;2024-02-26T00:18:58;1.43;;;1.33;;
7410;SDS011;3747;48.628;9.058;2024-02-26T00:21:25;2.07;;;1.77;;
7410;SDS011;3747;48.628;9.058;2024-02-26T00:23:53;1.40;;;1.30;;
7410;SDS011;3747;48.628;9.058;2024-02-26T00:26:21;1.37;;;1.23;;
7410;SDS011;3747;48.628;9.058;2024-02-26T00:28:48;2.03;;;1.40;;
7410;SDS011;3747;48.628;9.058;2024-02-26T00:31:14;2.13;;;1.90;;
7410;SDS011;3747;48.628;9.058;2024-02-26T00:33:41;3.57;;;1.90;;
7410;SDS011;3747;48.628;9.058;2024-02-26T00:36:08;2.10;;;1.90;;
7410;SDS011;3747;48.628;9.058;2024-02-26T00:38:35;2.73;;;2.13;;
7410;SDS011;3747;48.628;9.058;2024-02-26T00:41:02;2.80;;;2.40;;
7410;SDS011;3747;48.628;9.058;2024-02-26T00:43:30;4.40;;;2.87;;
7410;SDS011;3747;48.628;9.058;2024-02-26T00:45:56;3.73;;;3.07;;
7410;SDS011;3747;48.628;9.058;2024-02-26T00:48:23;8.43;;;4.77;;
7410;SDS011;3747;48.628;9.058;2024-02-26T00:50:50;19.83;;;10.77;;
7410;SDS011;3747;48.628;9.058;2024-02-26T00:53:17;4.73;;;2.73;;
7410;SDS011;3747;48.628;9.058;2024-02-26T00:55:44;0.83;;;0.77;;
7410;SDS011;3747;48.628;9.058;2024-02-26T00:58:10;1.30;;;0.97;;
7410;SDS011;3747;48.628;9.058;2024-02-26T01:00:38;1.63;;;0.87;;
7410;SDS011;3747;48.628;9.058;2024-02-26T01:03:05;1.00;;;0.80;;
7410;SDS011;3747;48.628;9.058;2024-02-26T01:05:32;1.03;;;0.80;;
7410;SDS011;3747;48.628;9.058;2024-02-26T01:07:58;0.93;;;0.80;;
7410;SDS011;3747;48.628;9.058;2024-02-26T01:10:25;1.03;;;0.83;;
7410;SDS011;3747;48.628;9.058;2024-02-26T01:12:52;1.00;;;0.90;;
7410;SDS011;3747;48.628;9.058;2024-02-26T01:15:19;1.73;;;1.00;;
7410;SDS011;3747;48.628;9.058;2024-02-26T01:17:50;1.77;;;0.83;;
7410;SDS011;3747;48.628;9.058;2024-02-26T01:20:16;1.93;;;0.90;;
7410;SDS011;3747;48.628;9.058;2024-02-26T01:22:43;2.47;;;0.80;;
7410;SDS011;3747;48.628;9.058;2024-02-26T01:25:10;1.40;;;0.83;;
7410;SDS011;3747;48.628;9.058;2024-02-26T01:27:37;1.87;;;0.80;;
7410;SDS011;3747;48.628;9.058;2024-02-26T01:30:03;0.60;;;0.60;;
7410;SDS011;3747;48.628;9.058;2024-02-26T01:32:31;1.70;;;1.60;;
7410;SDS011;3747;48.628;9.058;2024-02-26T01:34:59;0.80;;;0.80;;
7410;SDS011;3747;48.628;9.058;2024-02-26T01:37:26;1.17;;;0.77;;
7410;SDS011;3747;48.628;9.058;2024-02-26T01:39:54;0.60;;;0.60;;
7410;SDS011;3747;48.628;9.058;2024-02-26T01:42:21;0.50;;;0.50;;
7410;SDS011;3747;48.628;9.058;2024-02-26T01:44:48;0.67;;;0.67;;
7410;SDS011;3747;48.628;9.058;2024-02-26T01:47:14;1.77;;;0.80;;
7410;SDS011;3747;48.628;9.058;2024-02-26T01:49:41;1.33;;;0.80;;
7410;SDS011;3747;48.628;9.058;2024-02-26T01:52:09;0.83;;;0.80;;
7410;SDS011;3747;48.628;9.058;2024-02-26T01:54:37;0.77;;;0.60;;
7410;SDS011;3747;48.628;9.058;2024-02-26T01:57:05;1.37;;;1.00;;
7410;SDS011;3747;48.628;9.058;2024-02-26T01:59:33;0.93;;;0.80;;
7410;SDS011;3747;48.628;9.058;2024-02-26T02:02:01;3.40;;;1.00;;
7410;SDS011;3747;48.628;9.058;2024-02-26T02:04:29;0.80;;;0.60;;
7410;SDS011;3747;48.628;9.058;2024-02-26T02:06:56;0.80;;;0.50;;
7410;SDS011;3747;48.628;9.058;2024-02-26T02:09:27;0.63;;;0.63;;
7410;SDS011;3747;48.628;9.058;2024-02-26T02:11:54;1.60;;;0.50;;
7410;SDS011;3747;48.628;9.058;2024-02-26T02:14:21;1.03;;;0.53;;
7410;SDS011;3747;48.628;9.058;2024-02-26T02:16:48;0.57;;;0.57;;
7410;SDS011;3747;48.628;9.058;2024-02-26T02:19:15;0.50;;;0.50;;
7410;SDS011;3747;48.628;9.058;2024-02-26T02:21:43;0.40;;;0.40;;
7410;SDS011;3747;48.628;9.058;2024-02-26T02:24:09;0.80;;;0.60;;
7410;SDS011;3747;48.628;9.058;2024-02-26T02:26:36;0.40;;;0.40;;
7410;SDS011;3747;48.628;9.058;2024-02-26T02:29:03;1.20;;;0.60;;
7410;SDS011;3747;48.628;9.058;2024-02-26T02:31:30;0.50;;;0.50;;
7410;SDS011;3747;48.628;9.058;2024-02-26T02:33:57;1.10;;;0.40;;
7410;SDS011;3747;48.628;9.058;2024-02-26T02:36:25;1.00;;;0.50;;
7410;SDS011;3747;48.628;9.058;2024-02-26T02:38:53;0.50;;;0.50;;
7410;SDS011;3747;48.628;9.058;2024-02-26T02:41:19;1.53;;;0.70;;
7410;SDS011;3747;48.628;9.058;2024-02-26T02:43:46;1.17;;;0.53;;
7410;SDS011;3747;48.628;9.058;2024-02-26T02:46:13;0.87;;;0.70;;
7410;SDS011;3747;48.628;9.058;2024-02-26T02:48:41;1.07;;;0.60;;
7410;SDS011;3747;48.628;9.058;2024-02-26T02:51:08;0.43;;;0.40;;
7410;SDS011;3747;48.628;9.058;2024-02-26T02:53:35;0.80;;;0.70;;
7410;SDS011;3747;48.628;9.058;2024-02-26T02:56:04;1.00;;;0.70;;
7410;SDS011;3747;48.628;9.058;2024-02-26T02:58:31;0.60;;;0.60;;
7410;SDS011;3747;48.628;9.058;2024-02-26T03:00:57;0.70;;;0.70;;
7410;SDS011;3747;48.628;9.058;2024-02-26T03:03:25;0.87;;;0.60;;
7410;SDS011;3747;48.628;9.058;2024-02-26T03:05:53;1.57;;;0.60;;
7410;SDS011;3747;48.628;9.058;2024-02-26T03:08:21;0.50;;;0.50;;
7410;SDS011;3747;48.628;9.058;2024-02-26T03:10:48;0.93;;;0.60;;
7410;SDS011;3747;48.628;9.058;2024-02-26T03:13:16;0.73;;;0.60;;
7410;SDS011;3747;48.628;9.058;2024-02-26T03:15:43;0.60;;;0.30;;
7410;SDS011;3747;48.628;9.058;2024-02-26T03:18:10;0.40;;;0.40;;
7410;SDS011;3747;48.628;9.058;2024-02-26T03:20:36;0.40;;;0.40;;
7410;SDS011;3747;48.628;9.058;2024-02-26T03:23:03;0.53;;;0.47;;
7410;SDS011;3747;48.628;9.058;2024-02-26T03:25:30;1.60;;;0.70;;
7410;SDS011;3747;48.628;9.058;2024-02-26T03:27:57;0.60;;;0.60;;
7410;SDS011;3747;48.628;9.058;2024-02-26T03:30:24;0.50;;;0.50;;
7410;SDS011;3747;48.628;9.058;2024-02-26T03:32:51;1.47;;;0.87;;
7410;SDS011;3747;48.628;9.058;2024-02-26T03:35:18;0.40;;;0.40;;
7410;SDS011;3747;48.628;9.058;2024-02-26T03:37:45;0.70;;;0.60;;
7410;SDS011;3747;48.628;9.058;2024-02-26T03:40:12;1.30;;;1.20;;
7410;SDS011;3747;48.628;9.058;2024-02-26T03:42:39;0.60;;;0.60;;
7410;SDS011;3747;48.628;9.058;2024-02-26T03:45:06;0.93;;;0.80;;
7410;SDS011;3747;48.628;9.058;2024-02-26T03:47:37;0.53;;;0.53;;
7410;SDS011;3747;48.628;9.058;2024-02-26T03:50:05;1.60;;;0.63;;
7410;SDS011;3747;48.628;9.058;2024-02-26T03:52:32;0.83;;;0.53;;
7410;SDS011;3747;48.628;9.058;2024-02-26T03:54:59;0.43;;;0.43;;
7410;SDS011;3747;48.628;9.058;2024-02-26T03:57:26;0.40;;;0.40;;
7410;SDS011;3747;48.628;9.058;2024-02-26T03:59:52;0.67;;;0.50;;
7410;SDS011;3747;48.628;9.058;2024-02-26T04:02:19;0.37;;;0.37;;
7410;SDS011;3747;48.628;9.058;2024-02-26T04:04:49;0.30;;;0.30;;
7410;SDS011;3747;48.628;9.058;2024-02-26T04:07:15;0.50;;;0.50;;
7410;SDS011;3747;48.628;9.058;2024-02-26T04:09:42;0.50;;;0.50;;
7410;SDS011;3747;48.628;9.058;2024-02-26T04:12:09;1.03;;;0.70;;
7410;SDS011;3747;48.628;9.058;2024-02-26T04:14:36;0.50;;;0.50;;
7410;SDS011;3747;48.628;9.058;2024-02-26T04:17:03;0.60;;;0.50;;
7410;SDS011;3747;48.628;9.058;2024-02-26T04:19:29;0.73;;;0.60;;
7410;SDS011;3747;48.628;9.058;2024-02-26T04:21:57;6.77;;;4.77;;
7410;SDS011;3747;48.628;9.058;2024-02-26T04:24:25;5.57;;;3.93;;
7410;SDS011;3747;48.628;9.058;2024-02-26T04:26:52;1.97;;;1.83;;
7410;SDS011;3747;48.628;9.058;2024-02-26T04:29:19;1.10;;;1.00;;
7410;SDS011;3747;48.628;9.058;2024-02-26T04:31:45;0.83;;;0.73;;
7410;SDS011;3747;48.628;9.058;2024-02-26T04:34:13;0.67;;;0.53;;
7410;SDS011;3747;48.628;9.058;2024-02-26T04:36:39;0.80;;;0.80;;
7410;SDS011;3747;48.628;9.058;2024-02-26T04:39:08;0.90;;;0.90;;
7410;SDS011;3747;48.628;9.058;2024-02-26T04:41:36;0.60;;;0.60;;
7410;SDS011;3747;48.628;9.058;2024-02-26T04:44:02;0.50;;;0.50;;
7410;SDS011;3747;48.628;9.058;2024-02-26T04:46:29;1.23;;;0.70;;
7410;SDS011;3747;48.628;9.058;2024-02-26T04:48:56;0.70;;;0.70;;
7410;SDS011;3747;48.628;9.058;2024-02-26T04:51:23;0.60;;;0.60;;
7410;SDS011;3747;48.628;9.058;2024-02-26T04:53:50;0.63;;;0.63;;
7410;SDS011;3747;48.628;9.058;2024-02-26T04:56:19;0.60;;;0.50;;
7410;SDS011;3747;48.628;9.058;2024-02-26T04:58:46;0.73;;;0.73;;
7410;SDS011;3747;48.628;9.058;2024-02-26T05:01:13;1.23;;;0.90;;
7410;SDS011;3747;48.628;9.058;2024-02-26T05:03:41;1.10;;;1.07;;
7410;SDS011;3747;48.628;9.058;2024-02-26T05:06:07;2.00;;;0.73;;
7410;SDS011;3747;48.628;9.058;2024-02-26T05:08:43;1.20;;;1.10;;
7410;SDS011;3747;48.628;9.058;2024-02-26T05:11:11;1.80;;;1.27;;
7410;SDS011;3747;48.628;9.058;2024-02-26T05:13:37;1.43;;;1.20;;
7410;SDS011;3747;48.628;9.058;2024-02-26T05:16:04;1.50;;;1.10;;
7410;SDS011;3747;48.628;9.058;2024-02-26T05:18:31;0.87;;;0.87;;
7410;SDS011;3747;48.628;9.058;2024-02-26T05:20:58;1.30;;;1.07;;
7410;SDS011;3747;48.628;9.058;2024-02-26T05:23:25;3.40;;;2.57;;
7410;SDS011;3747;48.628;9.058;2024-02-26T05:25:54;1.50;;;1.20;;
7410;SDS011;3747;48.628;9.058;2024-02-26T05:28:21;1.57;;;1.30;;
7410;SDS011;3747;48.628;9.058;2024-02-26T05:30:47;1.30;;;1.10;;
7410;SDS011;3747;48.628;9.058;2024-02-26T05:33:14;1.53;;;1.43;;
7410;SDS011;3747;48.628;9.058;2024-02-26T05:35:40;1.77;;;1.50;;
7410;SDS011;3747;48.628;9.058;2024-02-26T05:38:07;2.03;;;1.60;;
7410;SDS011;3747;48.628;9.058;2024-02-26T05:40:34;1.80;;;1.30;;
7410;SDS011;3747;48.628;9.058;2024-02-26T05:43:02;1.10;;;1.00;;
7410;SDS011;3747;48.628;9.058;2024-02-26T05:45:29;1.20;;;1.03;;
7410;SDS011;3747;48.628;9.058;2024-02-26T05:47:55;2.03;;;1.13;;
7410;SDS011;3747;48.628;9.058;2024-02-26T05:50:22;1.30;;;1.20;;
7410;SDS011;3747;48.628;9.058;2024-02-26T05:52:49;1.57;;;1.43;;
7410;SDS011;3747;48.628;9.058;2024-02-26T05:55:15;1.23;;;1.10;;
7410;SDS011;3747;48.628;9.058;2024-02-26T05:57:42;1.00;;;1.00;;
7410;SDS011;3747;48.628;9.058;2024-02-26T06:00:10;1.17;;;1.10;;
7410;SDS011;3747;48.628;9.058;2024-02-26T06:02:38;1.10;;;0.80;;
7410;SDS011;3747;48.628;9.058;2024-02-26T06:05:05;2.40;;;1.17;;
7410;SDS011;3747;48.628;9.058;2024-02-26T06:07:33;1.87;;;1.20;;
7410;SDS011;3747;48.628;9.058;2024-02-26T06:10:00;1.20;;;1.07;;
7410;SDS011;3747;48.628;9.058;2024-02-26T06:12:27;1.20;;;1.10;;
7410;SDS011;3747;48.628;9.058;2024-02-26T06:14:55;1.47;;;1.10;;
7410;SDS011;3747;48.628;9.058;2024-02-26T06:17:24;1.20;;;1.00;;
7410;SDS011;3747;48.628;9.058;2024-02-26T06:19:51;1.10;;;1.00;;
7410;SDS011;3747;48.628;9.058;2024-02-26T06:22:17;2.80;;;1.47;;
7410;SDS011;3747;48.628;9.058;2024-02-26T06:24:44;2.10;;;1.90;;
7410;SDS011;3747;48.628;9.058;2024-02-26T06:27:10;1.93;;;1.70;;
7410;SDS011;3747;48.628;9.058;2024-02-26T06:29:37;2.23;;;1.70;;
7410;SDS011;3747;48.628;9.058;2024-02-26T06:32:04;2.03;;;1.83;;
7410;SDS011;3747;48.628;9.058;2024-02-26T06:34:33;2.27;;;1.70;;
7410;SDS011;3747;48.628;9.058;2024-02-26T06:36:59;1.10;;;1.00;;
7410;SDS011;3747;48.628;9.058;2024-02-26T06:39:26;2.07;;;1.70;;
7410;SDS011;3747;48.628;9.058;2024-02-26T06:41:53;1.43;;;1.30;;
7410;SDS011;3747;48.628;9.058;2024-02-26T06:44:25;1.20;;;0.63;;
7410;SDS011;3747;48.628;9.058;2024-02-26T06:46:56;2.27;;;0.90;;
7410;SDS011;3747;48.628;9.058;2024-02-26T06:49:23;1.47;;;1.37;;
7410;SDS011;3747;48.628;9.058;2024-02-26T06:51:51;3.17;;;1.30;;
7410;SDS011;3747;48.628;9.058;2024-02-26T06:54:18;2.53;;;1.80;;
7410;SDS011;3747;48.628;9.058;2024-02-26T06:56:45;2.67;;;1.97;;
7410;SDS011;3747;48.628;9.058;2024-02-26T06:59:12;2.03;;;1.60;;
7410;SDS011;3747;48.628;9.058;2024-02-26T07:01:39;1.50;;;1.20;;
7410;SDS011;3747;48.628;9.058;2024-02-26T07:04:07;2.03;;;1.60;;
7410;SDS011;3747;48.628;9.058;2024-02-26T07:06:35;1.27;;;1.17;;
7410;SDS011;3747;48.628;9.058;2024-02-26T07:09:03;1.30;;;1.13;;
7410;SDS011;3747;48.628;9.058;2024-02-26T07:11:30;0.83;;;0.83;;
7410;SDS011;3747;48.628;9.058;2024-02-26T07:13:56;1.73;;;1.60;;
7410;SDS011;3747;48.628;9.058;2024-02-26T07:16:23;4.57;;;3.03;;
7410;SDS011;3747;48.628;9.058;2024-02-26T07:18:50;5.13;;;3.13;;
7410;SDS011;3747;48.628;9.058;2024-02-26T07:21:16;4.10;;;2.83;;
7410;SDS011;3747;48.628;9.058;2024-02-26T07:23:43;3.80;;;2.50;;
7410;SDS011;3747;48.628;9.058;2024-02-26T07:26:11;2.87;;;2.57;;
7410;SDS011;3747;48.628;9.058;2024-02-26T07:28:38;3.43;;;2.87;;
7410;SDS011;3747;48.628;9.058;2024-02-26T07:31:04;3.20;;;2.90;;
7410;SDS011;3747;48.628;9.058;2024-02-26T07:33:31;3.53;;;2.87;;
7410;SDS011;3747;48.628;9.058;2024-02-26T07:35:58;5.60;;;4.97;;
7410;SDS011;3747;48.628;9.058;2024-02-26T07:38:25;5.07;;;4.57;;
7410;SDS011;3747;48.628;9.058;2024-02-26T07:40:52;3.67;;;3.23;;
7410;SDS011;3747;48.628;9.058;2024-02-26T07:43:20;2.17;;;1.97;;
7410;SDS011;3747;48.628;9.058;2024-02-26T07:45:46;2.27;;;2.17;;
7410;SDS011;3747;48.628;9.058;2024-02-26T07:48:13;2.70;;;1.83;;
7410;SDS011;3747;48.628;9.058;2024-02-26T07:50:39;2.03;;;1.70;;
7410;SDS011;3747;48.628;9.058;2024-02-26T07:53:06;2.50;;;1.70;;
7410;SDS011;3747;48.628;9.058;2024-02-26T07:55:33;2.40;;;1.80;;
7410;SDS011;3747;48.628;9.058;2024-02-26T07:58:00;4.10;;;2.77;;
7410;SDS011;3747;48.628;9.058;2024-02-26T08:00:28;7.23;;;4.10;;
7410;SDS011;3747;48.628;9.058;2024-02-26T08:02:54;7.90;;;4.60;;
7410;SDS011;3747;48.628;9.058;2024-02-26T08:05:21;5.17;;;2.27;;
7410;SDS011;3747;48.628;9.058;2024-02-26T08:07:48;2.90;;;2.30;;
7410;SDS011;3747;48.628;9.058;2024-02-26T08:10:14;2.37;;;1.60;;
7410;SDS011;3747;48.628;9.058;2024-02-26T08:12:41;1.80;;;1.50;;
7410;SDS011;3747;48.628;9.058;2024-02-26T08:15:08;1.27;;;1.17;;
7410;SDS011;3747;48.628;9.058;2024-02-26T08:17:37;1.73;;;1.27;;
7410;SDS011;3747;48.628;9.058;2024-02-26T08:20:04;2.07;;;1.17;;
7410;SDS011;3747;48.628;9.058;2024-02-26T08:22:32;1.03;;;1.00;;
7410;SDS011;3747;48.628;9.058;2024-02-26T08:25:00;2.30;;;1.00;;
7410;SDS011;3747;48.628;9.058;2024-02-26T08:27:31;1.00;;;0.80;;
7410;SDS011;3747;48.628;9.058;2024-02-26T08:29:58;1.97;;;1.40;;
7410;SDS011;3747;48.628;9.058;2024-02-26T08:32:25;2.30;;;1.37;;
7410;SDS011;3747;48.628;9.058;2024-02-26T08:34:53;2.57;;;0.93;;
7410;SDS011;3747;48.628;9.058;2024-02-26T08:37:19;0.87;;;0.87;;
7410;SDS011;3747;48.628;9.058;2024-02-26T08:39:54;2.67;;;0.80;;
7410;SDS011;3747;48.628;9.058;2024-02-26T08:42:21;1.30;;;1.03;;
7410;SDS011;3747;48.628;9.058;2024-02-26T08:44:49;1.30;;;1.20;;
7410;SDS011;3747;48.628;9.058;2024-02-26T08:47:16;2.00;;;1.17;;
7410;SDS011;3747;48.628;9.058;2024-02-26T08:49:42;1.07;;;0.80;;
7410;SDS011;3747;48.628;9.058;2024-02-26T08:52:11;1.37;;;1.10;;
7410;SDS011;3747;48.628;9.058;2024-02-26T08:54:42;1.87;;;0.90;;
7410;SDS011;3747;48.628;9.058;2024-02-26T08:57:27;1.07;;;0.83;;
7410;SDS011;3747;48.628;9.058;2024-02-26T08:59:54;1.90;;;0.90;;
7410;SDS011;3747;48.628;9.058;2024-02-26T09:02:21;0.47;;;0.47;;
7410;SDS011;3747;48.628;9.058;2024-02-26T09:04:49;0.97;;;0.80;;
7410;SDS011;3747;48.628;9.058;2024-02-26T09:07:20;0.80;;;0.80;;
7410;SDS011;3747;48.628;9.058;2024-02-26T09:09:46;1.33;;;0.70;;
7410;SDS011;3747;48.628;9.058;2024-02-26T09:12:13;0.90;;;0.90;;
7410;SDS011;3747;48.628;9.058;2024-02-26T09:14:40;1.00;;;1.00;;
7410;SDS011;3747;48.628;9.058;2024-02-26T09:17:06;0.93;;;0.90;;
7410;SDS011;3747;48.628;9.058;2024-02-26T09:19:33;1.37;;;0.97;;
7410;SDS011;3747;48.628;9.058;2024-02-26T09:22:00;2.47;;;0.80;;
7410;SDS011;3747;48.628;9.058;2024-02-26T09:24:28;1.60;;;0.90;;
7410;SDS011;3747;48.628;9.058;2024-02-26T09:26:54;1.03;;;0.93;;
7410;SDS011;3747;48.628;9.058;2024-02-26T09:29:21;1.03;;;0.77;;
7410;SDS011;3747;48.628;9.058;2024-02-26T09:31:48;2.20;;;0.80;;
7410;SDS011;3747;48.628;9.058;2024-02-26T09:34:14;1.00;;;0.90;;
7410;SDS011;3747;48.628;9.058;2024-02-26T09:36:41;1.53;;;0.73;;
7410;SDS011;3747;48.628;9.058;2024-02-26T09:39:09;0.90;;;0.87;;
7410;SDS011;3747;48.628;9.058;2024-02-26T09:41:37;1.27;;;0.60;;
7410;SDS011;3747;48.628;9.058;2024-02-26T09:44:04;0.80;;;0.80;;
7410;SDS011;3747;48.628;9.058;2024-02-26T09:46:31;0.70;;;0.70;;
7410;SDS011;3747;48.628;9.058;2024-02-26T09:48:58;1.47;;;0.60;;
7410;SDS011;3747;48.628;9.058;2024-02-26T09:51:25;4.43;;;0.93;;
7410;SDS011;3747;48.628;9.058;2024-02-26T09:53:52;1.17;;;0.60;;
7410;SDS011;3747;48.628;9.058;2024-02-26T09:56:19;0.50;;;0.50;;
7410;SDS011;3747;48.628;9.058;2024-02-26T09:58:47;0.93;;;0.80;;
7410;SDS011;3747;48.628;9.058;2024-02-26T10:01:18;0.77;;;0.50;;
7410;SDS011;3747;48.628;9.058;2024-02-26T10:03:47;1.00;;;0.80;;
7410;SDS011;3747;48.628;9.058;2024-02-26T10:06:18;0.90;;;0.80;;
7410;SDS011;3747;48.628;9.058;2024-02-26T10:08:45;0.63;;;0.60;;
7410;SDS011;3747;48.628;9.058;2024-02-26T10:11:19;0.60;;;0.60;;
7410;SDS011;3747;48.628;9.058;2024-02-26T10:13:48;1.47;;;0.90;;
7410;SDS011;3747;48.628;9.058;2024-02-26T10:16:14;0.80;;;0.60;;
7410;SDS011;3747;48.628;9.058;2024-02-26T10:18:45;0.80;;;0.63;;
7410;SDS011;3747;48.628;9.058;2024-02-26T10:21:13;2.07;;;0.53;;
7410;SDS011;3747;48.628;9.058;2024-02-26T10:23:42;1.07;;;0.53;;
7410;SDS011;3747;48.628;9.058;2024-02-26T10:26:09;1.77;;;0.60;;
7410;SDS011;3747;48.628;9.058;2024-02-26T10:28:38;0.93;;;0.87;;
7410;SDS011;3747;48.628;9.058;2024-02-26T10:31:06;0.80;;;0.80;;
7410;SDS011;3747;48.628;9.058;2024-02-26T10:33:34;1.17;;;0.70;;
7410;SDS011;3747;48.628;9.058;2024-02-26T10:36:01;0.80;;;0.73;;
7410;SDS011;3747;48.628;9.058;2024-02-26T10:38:29;1.13;;;0.70;;
7410;SDS011;3747;48.628;9.058;2024-02-26T10:40:55;0.60;;;0.60;;
7410;SDS011;3747;48.628;9.058;2024-02-26T10:43:22;1.00;;;0.77;;
7410;SDS011;3747;48.628;9.058;2024-02-26T10:45:49;0.80;;;0.73;;
7410;SDS011;3747;48.628;9.058;2024-02-26T10:48:17;1.47;;;0.63;;
7410;SDS011;3747;48.628;9.058;2024-02-26T10:50:44;1.23;;;0.60;;
7410;SDS011;3747;48.628;9.058;2024-02-26T10:53:13;0.67;;;0.57;;
7410;SDS011;3747;48.628;9.058;2024-02-26T10:55:42;1.33;;;0.80;;
7410;SDS011;3747;48.628;9.058;2024-02-26T10:58:13;1.40;;;0.90;;
7410;SDS011;3747;48.628;9.058;2024-02-26T11:00:40;0.63;;;0.60;;
7410;SDS011;3747;48.628;9.058;2024-02-26T11:03:07;1.33;;;0.93;;
7410;SDS011;3747;48.628;9.058;2024-02-26T11:05:38;1.10;;;1.00;;
7410;SDS011;3747;48.628;9.058;2024-02-26T11:08:06;0.80;;;0.80;;
7410;SDS011;3747;48.628;9.058;2024-02-26T11:10:33;2.90;;;0.80;;
7410;SDS011;3747;48.628;9.058;2024-02-26T11:13:06;0.80;;;0.73;;
7410;SDS011;3747;48.628;9.058;2024-02-26T11:15:35;0.60;;;0.60;;
7410;SDS011;3747;48.628;9.058;2024-02-26T11:18:03;1.87;;;0.63;;
7410;SDS011;3747;48.628;9.058;2024-02-26T11:20:30;1.57;;;0.80;;
7410;SDS011;3747;48.628;9.058;2024-02-26T11:23:01;0.50;;;0.50;;
7410;SDS011;3747;48.628;9.058;2024-02-26T11:25:27;0.90;;;0.70;;
7410;SDS011;3747;48.628;9.058;2024-02-26T11:27:54;1.43;;;0.70;;
7410;SDS011;3747;48.628;9.058;2024-02-26T11:30:24;0.87;;;0.70;;
7410;SDS011;3747;48.628;9.058;2024-02-26T11:32:52;1.83;;;0.80;;
7410;SDS011;3747;48.628;9.058;2024-02-26T11:35:19;1.00;;;0.80;;
7410;SDS011;3747;48.628;9.058;2024-02-26T11:37:53;2.87;;;0.90;;
7410;SDS011;3747;48.628;9.058;2024-02-26T11:40:22;1.17;;;1.07;;
7410;SDS011;3747;48.628;9.058;2024-02-26T11:42:50;0.83;;;0.80;;
7410;SDS011;3747;48.628;9.058;2024-02-26T11:48:20;1.03;;;0.80;;
7410;SDS011;3747;48.628;9.058;2024-02-26T11:50:48;1.70;;;0.97;;
7410;SDS011;3747;48.628;9.058;2024-02-26T11:58:58;1.03;;;0.90;;
7410;SDS011;3747;48.628;9.058;2024-02-26T12:01:39;1.00;;;0.73;;
7410;SDS011;3747;48.628;9.058;2024-02-26T12:04:07;0.90;;;0.90;;
7410;SDS011;3747;48.628;9.058;2024-02-26T12:06:44;2.20;;;1.00;;
7410;SDS011;3747;48.628;9.058;2024-02-26T12:12:06;1.67;;;1.07;;
7410;SDS011;3747;48.628;9.058;2024-02-26T12:14:37;0.60;;;0.60;;
7410;SDS011;3747;48.628;9.058;2024-02-26T12:17:05;0.90;;;0.80;;
7410;SDS011;3747;48.628;9.058;2024-02-26T12:19:34;0.80;;;0.80;;
7410;SDS011;3747;48.628;9.058;2024-02-26T12:22:01;3.03;;;0.80;;
7410;SDS011;3747;48.628;9.058;2024-02-26T12:24:28;1.67;;;0.87;;
7410;SDS011;3747;48.628;9.058;2024-02-26T12:26:56;0.77;;;0.57;;
7410;SDS011;3747;48.628;9.058;2024-02-26T12:29:24;1.40;;;0.70;;
7410;SDS011;3747;48.628;9.058;2024-02-26T12:31:51;1.10;;;0.90;;
7410;SDS011;3747;48.628;9.058;2024-02-26T12:34:18;0.83;;;0.67;;
7410;SDS011;3747;48.628;9.058;2024-02-26T12:36:44;0.70;;;0.70;;
7410;SDS011;3747;48.628;9.058;2024-02-26T12:39:11;2.13;;;0.73;;
7410;SDS011;3747;48.628;9.058;2024-02-26T12:41:38;2.50;;;0.83;;
7410;SDS011;3747;48.628;9.058;2024-02-26T12:44:05;0.73;;;0.60;;
7410;SDS011;3747;48.628;9.058;2024-02-26T12:46:35;1.53;;;0.87;;
7410;SDS011;3747;48.628;9.058;2024-02-26T12:49:01;0.90;;;0.70;;
7410;SDS011;3747;48.628;9.058;2024-02-26T12:51:28;1.03;;;0.60;;
7410;SDS011;3747;48.628;9.058;2024-02-26T12:53:56;1.03;;;0.53;;
7410;SDS011;3747;48.628;9.058;2024-02-26T12:56:22;0.77;;;0.67;;
7410;SDS011;3747;48.628;9.058;2024-02-26T12:58:58;8.63;;;1.20;;
7410;SDS011;3747;48.628;9.058;2024-02-26T13:01:25;3.33;;;0.50;;
7410;SDS011;3747;48.628;9.058;2024-02-26T13:03:53;0.20;;;0.20;;
7410;SDS011;3747;48.628;9.058;2024-02-26T13:06:20;4.63;;;0.77;;
7410;SDS011;3747;48.628;9.058;2024-02-26T13:08:47;0.50;;;0.50;;
7410;SDS011;3747;48.628;9.058;2024-02-26T13:11:14;0.77;;;0.70;;
7410;SDS011;3747;48.628;9.058;2024-02-26T13:13:41;1.33;;;0.40;;
7410;SDS011;3747;48.628;9.058;2024-02-26T13:16:09;1.37;;;0.90;;
7410;SDS011;3747;48.628;9.058;2024-02-26T13:18:39;1.70;;;0.80;;
7410;SDS011;3747;48.628;9.058;2024-02-26T13:21:11;3.97;;;0.30;;
7410;SDS011;3747;48.628;9.058;2024-02-26T13:23:40;0.40;;;0.40;;
7410;SDS011;3747;48.628;9.058;2024-02-26T13:26:07;1.13;;;0.20;;
7410;SDS011;3747;48.628;9.058;2024-02-26T13:28:34;1.93;;;0.70;;
7410;SDS011;3747;48.628;9.058;2024-02-26T13:31:01;0.70;;;0.53;;
7410;SDS011;3747;48.628;9.058;2024-02-26T13:33:46;5.20;;;0.50;;
7410;SDS011;3747;48.628;9.058;2024-02-26T13:36:15;1.13;;;0.50;;
7410;SDS011;3747;48.628;9.058;2024-02-26T13:38:50;0.90;;;0.40;;
7410;SDS011;3747;48.628;9.058;2024-02-26T13:44:03;0.20;;;0.10;;
7410;SDS011;3747;48.628;9.058;2024-02-26T13:46:30;0.87;;;0.20;;
7410;SDS011;3747;48.628;9.058;2024-02-26T13:48:57;1.27;;;0.40;;
7410;SDS011;3747;48.628;9.058;2024-02-26T13:51:25;3.17;;;0.50;;
7410;SDS011;3747;48.628;9.058;2024-02-26T13:53:51;1.00;;;0.20;;
7410;SDS011;3747;48.628;9.058;2024-02-26T13:56:18;0.60;;;0.10;;
7410;SDS011;3747;48.628;9.058;2024-02-26T13:58:45;0.10;;;0.10;;
7410;SDS011;3747;48.628;9.058;2024-02-26T14:01:12;0.10;;;0.10;;
7410;SDS011;3747;48.628;9.058;2024-02-26T14:03:38;0.57;;;0.30;;
7410;SDS011;3747;48.628;9.058;2024-02-26T14:06:05;0.13;;;0.10;;
7410;SDS011;3747;48.628;9.058;2024-02-26T14:08:33;0.77;;;0.23;;
7410;SDS011;3747;48.628;9.058;2024-02-26T14:11:00;0.33;;;0.10;;
7410;SDS011;3747;48.628;9.058;2024-02-26T14:13:27;0.50;;;0.10;;
7410;SDS011;3747;48.628;9.058;2024-02-26T14:15:53;0.20;;;0.20;;
7410;SDS011;3747;48.628;9.058;2024-02-26T14:18:21;0.30;;;0.30;;
7410;SDS011;3747;48.628;9.058;2024-02-26T14:20:47;0.10;;;0.10;;
7410;SDS011;3747;48.628;9.058;2024-02-26T14:23:14;0.30;;;0.30;;
7410;SDS011;3747;48.628;9.058;2024-02-26T14:25:48;2.03;;;0.30;;
7410;SDS011;3747;48.628;9.058;2024-02-26T14:28:15;0.53;;;0.30;;
7410;SDS011;3747;48.628;9.058;2024-02-26T14:30:41;2.67;;;0.20;;
7410;SDS011;3747;48.628;9.058;2024-02-26T14:33:09;1.00;;;0.80;;
7410;SDS011;3747;48.628;9.058;2024-02-26T14:35:35;0.20;;;0.20;;
7410;SDS011;3747;48.628;9.058;2024-02-26T14:38:02;0.20;;;0.20;;
7410;SDS011;3747;48.628;9.058;2024-02-26T14:40:30;0.63;;;0.20;;
7410;SDS011;3747;48.628;9.058;2024-02-26T14:42:58;0.20;;;0.20;;
7410;SDS011;3747;48.628;9.058;2024-02-26T14:45:25;0.47;;;0.47;;
7410;SDS011;3747;48.628;9.058;2024-02-26T14:47:52;0.20;;;0.20;;
7410;SDS011;3747;48.628;9.058;2024-02-26T14:50:19;0.20;;;0.20;;
7410;SDS011;3747;48.628;9.058;2024-02-26T14:52:56;1.57;;;0.40;;
7410;SDS011;3747;48.628;9.058;2024-02-26T14:55:23;0.40;;;0.20;;
7410;SDS011;3747;48.628;9.058;2024-02-26T14:57:50;0.13;;;0.13;;
7410;SDS011;3747;48.628;9.058;2024-02-26T15:00:18;0.87;;;0.10;;
7410;SDS011;3747;48.628;9.058;2024-02-26T15:02:45;0.27;;;0.10;;
7410;SDS011;3747;48.628;9.058;2024-02-26T15:05:12;0.40;;;0.30;;
7410;SDS011;3747;48.628;9.058;2024-02-26T15:07:39;1.53;;;0.40;;
7410;SDS011;3747;48.628;9.058;2024-02-26T15:10:06;1.83;;;0.53;;
7410;SDS011;3747;48.628;9.058;2024-02-26T15:12:33;0.27;;;0.20;;
7410;SDS011;3747;48.628;9.058;2024-02-26T15:15:00;0.70;;;0.60;;
7410;SDS011;3747;48.628;9.058;2024-02-26T15:17:28;0.57;;;0.40;;
7410;SDS011;3747;48.628;9.058;2024-02-26T15:19:57;0.77;;;0.40;;
7410;SDS011;3747;48.628;9.058;2024-02-26T15:22:24;0.80;;;0.47;;
7410;SDS011;3747;48.628;9.058;2024-02-26T15:24:51;1.40;;;0.50;;
7410;SDS011;3747;48.628;9.058;2024-02-26T15:27:18;0.47;;;0.40;;
7410;SDS011;3747;48.628;9.058;2024-02-26T15:29:45;2.50;;;0.70;;
7410;SDS011;3747;48.628;9.058;2024-02-26T15:32:11;0.73;;;0.47;;